sensor_id;sensor_type;location;lat;lon;timestamp;P1;durP1;ratioP1;P2;durP2;ratioP2
71091;SDS011;58751;50.708;7.134;2023-02-01T00:00:41;12.93;;;8.80;;
71091;SDS011;58751;50.708;7.134;2023-02-01T00:03:08;13.87;;;8.27;;
71091;SDS011;58751;50.708;7.134;2023-02-01T00:05:33;16.98;;;8.73;;
71091;SDS011;58751;50.708;7.134;2023-02-01T00:07:58;12.47;;;8.20;;
71091;SDS011;58751;50.708;7.134;2023-02-01T00:10:24;11.07;;;8.17;;
71091;SDS011;58751;50.708;7.134;2023-02-01T00:12:49;12.13;;;8.10;;
71091;SDS011;58751;50.708;7.134;2023-02-01T00:15:14;9.77;;;7.57;;
71091;SDS011;58751;50.708;7.134;2023-02-01T00:17:39;15.77;;;8.37;;
71091;SDS011;58751;50.708;7.134;2023-02-01T00:20:07;14.07;;;8.33;;
71091;SDS011;58751;50.708;7.134;2023-02-01T00:22:32;8.82;;;7.68;;
71091;SDS011;58751;50.708;7.134;2023-02-01T00:24:57;12.93;;;7.93;;
71091;SDS011;58751;50.708;7.134;2023-02-01T00:27:23;13.33;;;7.80;;
71091;SDS011;58751;50.708;7.134;2023-02-01T00:29:48;11.50;;;7.20;;
71091;SDS011;58751;50.708;7.134;2023-02-01T00:32:13;10.63;;;6.90;;
71091;SDS011;58751;50.708;7.134;2023-02-01T00:34:38;15.83;;;7.93;;
71091;SDS011;58751;50.708;7.134;2023-02-01T00:37:05;12.30;;;7.50;;
71091;SDS011;58751;50.708;7.134;2023-02-01T00:39:30;12.80;;;7.00;;
71091;SDS011;58751;50.708;7.134;2023-02-01T00:41:55;10.87;;;8.03;;
71091;SDS011;58751;50.708;7.134;2023-02-01T00:44:20;10.50;;;6.30;;
71091;SDS011;58751;50.708;7.134;2023-02-01T00:46:46;10.37;;;6.17;;
71091;SDS011;58751;50.708;7.134;2023-02-01T00:49:11;15.07;;;6.50;;
71091;SDS011;58751;50.708;7.134;2023-02-01T00:51:36;12.60;;;6.63;;
71091;SDS011;58751;50.708;7.134;2023-02-01T00:54:03;13.40;;;6.43;;
71091;SDS011;58751;50.708;7.134;2023-02-01T00:56:28;11.93;;;6.05;;
71091;SDS011;58751;50.708;7.134;2023-02-01T00:58:53;7.87;;;4.73;;
71091;SDS011;58751;50.708;7.134;2023-02-01T01:01:19;5.90;;;4.40;;
71091;SDS011;58751;50.708;7.134;2023-02-01T01:03:46;9.50;;;5.25;;
71091;SDS011;58751;50.708;7.134;2023-02-01T01:06:12;16.92;;;5.63;;
71091;SDS011;58751;50.708;7.134;2023-02-01T01:08:38;13.63;;;4.90;;
71091;SDS011;58751;50.708;7.134;2023-02-01T01:11:06;7.53;;;4.23;;
71091;SDS011;58751;50.708;7.134;2023-02-01T01:13:31;10.43;;;4.53;;
71091;SDS011;58751;50.708;7.134;2023-02-01T01:15:56;8.60;;;4.20;;
71091;SDS011;58751;50.708;7.134;2023-02-01T01:18:24;9.15;;;3.92;;
71091;SDS011;58751;50.708;7.134;2023-02-01T01:20:49;10.90;;;4.67;;
71091;SDS011;58751;50.708;7.134;2023-02-01T01:23:14;9.97;;;4.80;;
71091;SDS011;58751;50.708;7.134;2023-02-01T01:25:39;11.60;;;3.83;;
71091;SDS011;58751;50.708;7.134;2023-02-01T01:28:06;9.80;;;4.40;;
71091;SDS011;58751;50.708;7.134;2023-02-01T01:30:33;5.75;;;4.30;;
71091;SDS011;58751;50.708;7.134;2023-02-01T01:32:58;13.73;;;4.15;;
71091;SDS011;58751;50.708;7.134;2023-02-01T01:35:23;7.07;;;4.10;;
71091;SDS011;58751;50.708;7.134;2023-02-01T01:37:48;7.33;;;3.57;;
71091;SDS011;58751;50.708;7.134;2023-02-01T01:40:14;6.03;;;3.80;;
71091;SDS011;58751;50.708;7.134;2023-02-01T01:42:39;10.50;;;4.37;;
71091;SDS011;58751;50.708;7.134;2023-02-01T01:45:07;10.63;;;3.47;;
71091;SDS011;58751;50.708;7.134;2023-02-01T01:47:35;8.77;;;3.17;;
71091;SDS011;58751;50.708;7.134;2023-02-01T01:50:02;5.53;;;3.42;;
71091;SDS011;58751;50.708;7.134;2023-02-01T01:52:27;13.60;;;4.70;;
71091;SDS011;58751;50.708;7.134;2023-02-01T01:54:53;10.13;;;3.93;;
71091;SDS011;58751;50.708;7.134;2023-02-01T01:57:19;16.13;;;4.30;;
71091;SDS011;58751;50.708;7.134;2023-02-01T01:59:46;10.98;;;4.50;;
71091;SDS011;58751;50.708;7.134;2023-02-01T02:02:13;7.05;;;3.20;;
71091;SDS011;58751;50.708;7.134;2023-02-01T02:04:39;10.70;;;4.00;;
71091;SDS011;58751;50.708;7.134;2023-02-01T02:07:05;4.80;;;3.20;;
71091;SDS011;58751;50.708;7.134;2023-02-01T02:09:30;13.30;;;3.95;;
71091;SDS011;58751;50.708;7.134;2023-02-01T02:11:56;4.73;;;3.40;;
71091;SDS011;58751;50.708;7.134;2023-02-01T02:14:22;6.80;;;3.90;;
71091;SDS011;58751;50.708;7.134;2023-02-01T02:16:52;12.20;;;3.95;;
71091;SDS011;58751;50.708;7.134;2023-02-01T02:22:28;10.70;;;4.78;;
71091;SDS011;58751;50.708;7.134;2023-02-01T02:25:14;10.50;;;4.65;;
71091;SDS011;58751;50.708;7.134;2023-02-01T02:27:43;8.43;;;3.53;;
71091;SDS011;58751;50.708;7.134;2023-02-01T02:30:22;16.02;;;5.13;;
71091;SDS011;58751;50.708;7.134;2023-02-01T02:35:40;11.23;;;4.28;;
71091;SDS011;58751;50.708;7.134;2023-02-01T02:38:12;20.15;;;5.85;;
71091;SDS011;58751;50.708;7.134;2023-02-01T02:40:41;8.73;;;4.28;;
71091;SDS011;58751;50.708;7.134;2023-02-01T02:43:10;8.40;;;4.45;;
71091;SDS011;58751;50.708;7.134;2023-02-01T02:45:38;10.65;;;4.75;;
71091;SDS011;58751;50.708;7.134;2023-02-01T02:48:07;8.13;;;4.28;;
71091;SDS011;58751;50.708;7.134;2023-02-01T02:50:35;12.38;;;4.25;;
71091;SDS011;58751;50.708;7.134;2023-02-01T02:53:04;10.32;;;4.55;;
71091;SDS011;58751;50.708;7.134;2023-02-01T02:55:31;9.43;;;3.70;;
71091;SDS011;58751;50.708;7.134;2023-02-01T02:57:57;10.98;;;5.15;;
71091;SDS011;58751;50.708;7.134;2023-02-01T03:00:24;9.00;;;5.50;;
71091;SDS011;58751;50.708;7.134;2023-02-01T03:02:51;15.85;;;6.40;;
71091;SDS011;58751;50.708;7.134;2023-02-01T03:05:17;8.33;;;4.33;;
71091;SDS011;58751;50.708;7.134;2023-02-01T03:07:46;14.30;;;5.40;;
71091;SDS011;58751;50.708;7.134;2023-02-01T03:10:16;11.60;;;4.03;;
71091;SDS011;58751;50.708;7.134;2023-02-01T03:12:42;10.85;;;4.43;;
71091;SDS011;58751;50.708;7.134;2023-02-01T03:15:10;7.87;;;3.80;;
71091;SDS011;58751;50.708;7.134;2023-02-01T03:17:38;7.75;;;4.18;;
71091;SDS011;58751;50.708;7.134;2023-02-01T03:20:04;8.90;;;4.15;;
71091;SDS011;58751;50.708;7.134;2023-02-01T03:22:30;4.88;;;4.00;;
71091;SDS011;58751;50.708;7.134;2023-02-01T03:24:58;12.20;;;5.27;;
71091;SDS011;58751;50.708;7.134;2023-02-01T03:27:27;12.45;;;3.75;;
71091;SDS011;58751;50.708;7.134;2023-02-01T03:29:56;13.90;;;4.70;;
71091;SDS011;58751;50.708;7.134;2023-02-01T03:32:23;10.23;;;4.20;;
71091;SDS011;58751;50.708;7.134;2023-02-01T03:34:48;6.60;;;3.83;;
71091;SDS011;58751;50.708;7.134;2023-02-01T03:37:15;11.37;;;3.97;;
71091;SDS011;58751;50.708;7.134;2023-02-01T03:39:44;12.93;;;3.50;;
71091;SDS011;58751;50.708;7.134;2023-02-01T03:42:12;12.88;;;3.90;;
71091;SDS011;58751;50.708;7.134;2023-02-01T03:44:42;7.78;;;3.85;;
71091;SDS011;58751;50.708;7.134;2023-02-01T03:47:10;11.43;;;4.13;;
71091;SDS011;58751;50.708;7.134;2023-02-01T03:49:38;11.77;;;4.50;;
71091;SDS011;58751;50.708;7.134;2023-02-01T03:52:05;7.93;;;3.47;;
71091;SDS011;58751;50.708;7.134;2023-02-01T03:54:31;8.43;;;3.33;;
71091;SDS011;58751;50.708;7.134;2023-02-01T03:56:57;10.43;;;3.63;;
71091;SDS011;58751;50.708;7.134;2023-02-01T03:59:24;9.88;;;4.03;;
71091;SDS011;58751;50.708;7.134;2023-02-01T04:01:51;8.53;;;4.37;;
71091;SDS011;58751;50.708;7.134;2023-02-01T04:04:16;13.90;;;4.20;;
71091;SDS011;58751;50.708;7.134;2023-02-01T04:06:41;16.10;;;4.40;;
71091;SDS011;58751;50.708;7.134;2023-02-01T04:09:07;14.40;;;4.60;;
71091;SDS011;58751;50.708;7.134;2023-02-01T04:11:32;16.50;;;5.50;;
71091;SDS011;58751;50.708;7.134;2023-02-01T04:13:57;13.73;;;4.13;;
71091;SDS011;58751;50.708;7.134;2023-02-01T04:16:22;14.77;;;4.33;;
71091;SDS011;58751;50.708;7.134;2023-02-01T04:18:49;8.53;;;3.90;;
71091;SDS011;58751;50.708;7.134;2023-02-01T04:21:14;15.65;;;4.35;;
71091;SDS011;58751;50.708;7.134;2023-02-01T04:23:39;14.57;;;5.47;;
71091;SDS011;58751;50.708;7.134;2023-02-01T04:26:04;20.83;;;5.27;;
71091;SDS011;58751;50.708;7.134;2023-02-01T04:28:30;11.47;;;5.00;;
71091;SDS011;58751;50.708;7.134;2023-02-01T04:30:55;11.33;;;5.50;;
71091;SDS011;58751;50.708;7.134;2023-02-01T04:33:20;8.07;;;4.60;;
71091;SDS011;58751;50.708;7.134;2023-02-01T04:35:47;9.90;;;3.90;;
71091;SDS011;58751;50.708;7.134;2023-02-01T04:38:12;10.50;;;5.38;;
71091;SDS011;58751;50.708;7.134;2023-02-01T04:40:37;12.07;;;4.23;;
71091;SDS011;58751;50.708;7.134;2023-02-01T04:43:03;11.63;;;4.50;;
71091;SDS011;58751;50.708;7.134;2023-02-01T04:45:28;15.13;;;5.53;;
71091;SDS011;58751;50.708;7.134;2023-02-01T04:47:53;14.53;;;5.10;;
71091;SDS011;58751;50.708;7.134;2023-02-01T04:50:18;10.20;;;4.57;;
71091;SDS011;58751;50.708;7.134;2023-02-01T04:52:45;9.23;;;3.33;;
71091;SDS011;58751;50.708;7.134;2023-02-01T04:55:13;10.85;;;4.97;;
71091;SDS011;58751;50.708;7.134;2023-02-01T04:57:38;10.57;;;4.40;;
71091;SDS011;58751;50.708;7.134;2023-02-01T05:00:04;12.37;;;4.40;;
71091;SDS011;58751;50.708;7.134;2023-02-01T05:02:29;9.75;;;4.90;;
71091;SDS011;58751;50.708;7.134;2023-02-01T05:04:55;9.50;;;4.57;;
71091;SDS011;58751;50.708;7.134;2023-02-01T05:07:20;7.80;;;4.40;;
71091;SDS011;58751;50.708;7.134;2023-02-01T05:09:46;5.83;;;4.33;;
71091;SDS011;58751;50.708;7.134;2023-02-01T05:12:12;9.15;;;4.25;;
71091;SDS011;58751;50.708;7.134;2023-02-01T05:14:37;11.80;;;4.57;;
71091;SDS011;58751;50.708;7.134;2023-02-01T05:17:02;13.87;;;4.00;;
71091;SDS011;58751;50.708;7.134;2023-02-01T05:19:27;9.70;;;3.90;;
71091;SDS011;58751;50.708;7.134;2023-02-01T05:21:52;12.27;;;4.80;;
71091;SDS011;58751;50.708;7.134;2023-02-01T05:24:18;8.50;;;4.13;;
71091;SDS011;58751;50.708;7.134;2023-02-01T05:26:44;10.60;;;4.97;;
71091;SDS011;58751;50.708;7.134;2023-02-01T05:29:10;16.38;;;3.80;;
71091;SDS011;58751;50.708;7.134;2023-02-01T05:31:35;8.93;;;4.07;;
71091;SDS011;58751;50.708;7.134;2023-02-01T05:34:00;8.50;;;3.73;;
71091;SDS011;58751;50.708;7.134;2023-02-01T05:36:26;12.93;;;3.53;;
71091;SDS011;58751;50.708;7.134;2023-02-01T05:38:51;10.47;;;3.90;;
71091;SDS011;58751;50.708;7.134;2023-02-01T05:41:16;7.47;;;3.20;;
71091;SDS011;58751;50.708;7.134;2023-02-01T05:43:43;12.10;;;3.57;;
71091;SDS011;58751;50.708;7.134;2023-02-01T05:46:08;11.77;;;4.00;;
71091;SDS011;58751;50.708;7.134;2023-02-01T05:48:33;10.30;;;4.10;;
71091;SDS011;58751;50.708;7.134;2023-02-01T05:50:58;8.07;;;3.83;;
71091;SDS011;58751;50.708;7.134;2023-02-01T05:53:23;7.30;;;3.27;;
71091;SDS011;58751;50.708;7.134;2023-02-01T05:55:49;8.00;;;3.37;;
71091;SDS011;58751;50.708;7.134;2023-02-01T05:58:14;6.90;;;2.87;;
71091;SDS011;58751;50.708;7.134;2023-02-01T06:00:40;7.50;;;3.27;;
71091;SDS011;58751;50.708;7.134;2023-02-01T06:03:06;16.10;;;2.92;;
71091;SDS011;58751;50.708;7.134;2023-02-01T06:05:31;7.80;;;3.50;;
71091;SDS011;58751;50.708;7.134;2023-02-01T06:07:56;10.57;;;2.93;;
71091;SDS011;58751;50.708;7.134;2023-02-01T06:10:22;8.00;;;3.30;;
71091;SDS011;58751;50.708;7.134;2023-02-01T06:12:47;9.70;;;3.97;;
71091;SDS011;58751;50.708;7.134;2023-02-01T06:15:12;9.53;;;2.90;;
71091;SDS011;58751;50.708;7.134;2023-02-01T06:17:39;7.23;;;3.03;;
71091;SDS011;58751;50.708;7.134;2023-02-01T06:20:04;13.85;;;3.72;;
71091;SDS011;58751;50.708;7.134;2023-02-01T06:22:30;6.00;;;2.70;;
71091;SDS011;58751;50.708;7.134;2023-02-01T06:24:55;7.43;;;3.20;;
71091;SDS011;58751;50.708;7.134;2023-02-01T06:27:20;5.87;;;2.77;;
71091;SDS011;58751;50.708;7.134;2023-02-01T06:29:45;10.13;;;3.13;;
71091;SDS011;58751;50.708;7.134;2023-02-01T06:32:11;6.60;;;2.80;;
71091;SDS011;58751;50.708;7.134;2023-02-01T06:34:37;14.63;;;3.57;;
71091;SDS011;58751;50.708;7.134;2023-02-01T06:37:02;5.57;;;3.72;;
71091;SDS011;58751;50.708;7.134;2023-02-01T06:39:27;12.80;;;3.40;;
71091;SDS011;58751;50.708;7.134;2023-02-01T06:41:53;13.20;;;4.13;;
71091;SDS011;58751;50.708;7.134;2023-02-01T06:44:18;6.13;;;3.03;;
71091;SDS011;58751;50.708;7.134;2023-02-01T06:46:43;11.60;;;3.20;;
71091;SDS011;58751;50.708;7.134;2023-02-01T06:49:08;10.87;;;3.43;;
71091;SDS011;58751;50.708;7.134;2023-02-01T06:51:35;10.40;;;3.33;;
71091;SDS011;58751;50.708;7.134;2023-02-01T06:54:00;7.35;;;3.28;;
71091;SDS011;58751;50.708;7.134;2023-02-01T06:56:26;13.97;;;3.20;;
71091;SDS011;58751;50.708;7.134;2023-02-01T06:58:51;8.40;;;3.07;;
71091;SDS011;58751;50.708;7.134;2023-02-01T07:01:16;10.30;;;3.93;;
71091;SDS011;58751;50.708;7.134;2023-02-01T07:03:42;10.80;;;3.30;;
71091;SDS011;58751;50.708;7.134;2023-02-01T07:06:07;7.43;;;3.07;;
71091;SDS011;58751;50.708;7.134;2023-02-01T07:08:35;7.77;;;2.67;;
71091;SDS011;58751;50.708;7.134;2023-02-01T07:11:01;9.73;;;3.97;;
71091;SDS011;58751;50.708;7.134;2023-02-01T07:13:27;9.07;;;3.80;;
71091;SDS011;58751;50.708;7.134;2023-02-01T07:15:52;9.80;;;3.33;;
71091;SDS011;58751;50.708;7.134;2023-02-01T07:18:17;12.80;;;4.00;;
71091;SDS011;58751;50.708;7.134;2023-02-01T07:20:42;7.17;;;3.60;;
71091;SDS011;58751;50.708;7.134;2023-02-01T07:23:07;6.13;;;2.83;;
71091;SDS011;58751;50.708;7.134;2023-02-01T07:25:35;16.30;;;4.40;;
71091;SDS011;58751;50.708;7.134;2023-02-01T07:28:00;5.82;;;3.70;;
71091;SDS011;58751;50.708;7.134;2023-02-01T07:30:25;12.87;;;3.73;;
71091;SDS011;58751;50.708;7.134;2023-02-01T07:32:51;8.57;;;3.20;;
71091;SDS011;58751;50.708;7.134;2023-02-01T07:35:16;11.27;;;3.97;;
71091;SDS011;58751;50.708;7.134;2023-02-01T07:37:41;5.87;;;3.50;;
71091;SDS011;58751;50.708;7.134;2023-02-01T07:40:07;8.00;;;3.30;;
71091;SDS011;58751;50.708;7.134;2023-02-01T07:42:33;11.13;;;3.13;;
71091;SDS011;58751;50.708;7.134;2023-02-01T07:44:59;10.57;;;4.38;;
71091;SDS011;58751;50.708;7.134;2023-02-01T07:47:24;7.27;;;3.00;;
71091;SDS011;58751;50.708;7.134;2023-02-01T07:49:49;8.40;;;3.20;;
71091;SDS011;58751;50.708;7.134;2023-02-01T07:52:14;8.20;;;3.17;;
71091;SDS011;58751;50.708;7.134;2023-02-01T07:54:39;8.27;;;3.33;;
71091;SDS011;58751;50.708;7.134;2023-02-01T07:57:05;12.00;;;3.67;;
71091;SDS011;58751;50.708;7.134;2023-02-01T07:59:31;10.07;;;3.27;;
71091;SDS011;58751;50.708;7.134;2023-02-01T08:01:56;12.80;;;4.25;;
71091;SDS011;58751;50.708;7.134;2023-02-01T08:04:22;12.57;;;3.63;;
71091;SDS011;58751;50.708;7.134;2023-02-01T08:06:47;7.80;;;3.90;;
71091;SDS011;58751;50.708;7.134;2023-02-01T08:09:12;9.03;;;4.00;;
71091;SDS011;58751;50.708;7.134;2023-02-01T08:11:37;13.73;;;3.77;;
71091;SDS011;58751;50.708;7.134;2023-02-01T08:14:03;7.93;;;4.17;;
71091;SDS011;58751;50.708;7.134;2023-02-01T08:16:30;13.40;;;4.03;;
71091;SDS011;58751;50.708;7.134;2023-02-01T08:18:55;8.95;;;4.00;;
71091;SDS011;58751;50.708;7.134;2023-02-01T08:21:21;15.13;;;4.00;;
71091;SDS011;58751;50.708;7.134;2023-02-01T08:23:46;9.70;;;4.20;;
71091;SDS011;58751;50.708;7.134;2023-02-01T08:26:12;12.17;;;3.30;;
71091;SDS011;58751;50.708;7.134;2023-02-01T08:28:38;8.98;;;4.15;;
71091;SDS011;58751;50.708;7.134;2023-02-01T08:31:04;6.07;;;4.83;;
71091;SDS011;58751;50.708;7.134;2023-02-01T08:33:30;10.17;;;4.17;;
71091;SDS011;58751;50.708;7.134;2023-02-01T08:35:55;10.10;;;4.22;;
71091;SDS011;58751;50.708;7.134;2023-02-01T08:38:21;9.20;;;3.60;;
71091;SDS011;58751;50.708;7.134;2023-02-01T08:40:46;14.40;;;4.10;;
71091;SDS011;58751;50.708;7.134;2023-02-01T08:43:11;9.33;;;4.40;;
71091;SDS011;58751;50.708;7.134;2023-02-01T08:45:36;12.90;;;3.60;;
71091;SDS011;58751;50.708;7.134;2023-02-01T08:48:02;11.97;;;3.90;;
71091;SDS011;58751;50.708;7.134;2023-02-01T08:50:28;16.70;;;4.63;;
71091;SDS011;58751;50.708;7.134;2023-02-01T08:52:54;7.53;;;3.08;;
71091;SDS011;58751;50.708;7.134;2023-02-01T08:55:20;11.93;;;5.18;;
71091;SDS011;58751;50.708;7.134;2023-02-01T08:57:45;8.67;;;2.77;;
71091;SDS011;58751;50.708;7.134;2023-02-01T09:00:12;7.93;;;3.33;;
71091;SDS011;58751;50.708;7.134;2023-02-01T09:02:37;11.00;;;3.75;;
71091;SDS011;58751;50.708;7.134;2023-02-01T09:05:02;9.37;;;4.77;;
71091;SDS011;58751;50.708;7.134;2023-02-01T09:07:29;11.93;;;3.97;;
71091;SDS011;58751;50.708;7.134;2023-02-01T09:09:54;10.05;;;4.60;;
71091;SDS011;58751;50.708;7.134;2023-02-01T09:12:20;11.87;;;3.70;;
71091;SDS011;58751;50.708;7.134;2023-02-01T09:14:45;9.67;;;2.80;;
71091;SDS011;58751;50.708;7.134;2023-02-01T09:17:10;5.77;;;3.13;;
71091;SDS011;58751;50.708;7.134;2023-02-01T09:19:35;9.40;;;3.30;;
71091;SDS011;58751;50.708;7.134;2023-02-01T09:22:00;8.00;;;4.77;;
71091;SDS011;58751;50.708;7.134;2023-02-01T09:24:27;9.50;;;3.23;;
71091;SDS011;58751;50.708;7.134;2023-02-01T09:26:52;10.85;;;4.30;;
71091;SDS011;58751;50.708;7.134;2023-02-01T09:29:18;8.77;;;3.53;;
71091;SDS011;58751;50.708;7.134;2023-02-01T09:31:43;11.53;;;3.23;;
71091;SDS011;58751;50.708;7.134;2023-02-01T09:34:08;9.43;;;3.57;;
71091;SDS011;58751;50.708;7.134;2023-02-01T09:36:34;7.43;;;3.10;;
71091;SDS011;58751;50.708;7.134;2023-02-01T09:38:59;11.43;;;3.30;;
71091;SDS011;58751;50.708;7.134;2023-02-01T09:41:32;11.80;;;4.80;;
71091;SDS011;58751;50.708;7.134;2023-02-01T09:44:02;7.50;;;2.85;;
71091;SDS011;58751;50.708;7.134;2023-02-01T09:46:31;9.35;;;2.97;;
71091;SDS011;58751;50.708;7.134;2023-02-01T09:48:57;13.30;;;3.45;;
71091;SDS011;58751;50.708;7.134;2023-02-01T09:51:24;15.13;;;4.43;;
71091;SDS011;58751;50.708;7.134;2023-02-01T09:53:53;6.80;;;3.78;;
71091;SDS011;58751;50.708;7.134;2023-02-01T09:56:21;9.27;;;3.10;;
71091;SDS011;58751;50.708;7.134;2023-02-01T09:58:52;7.22;;;2.78;;
71091;SDS011;58751;50.708;7.134;2023-02-01T10:01:20;9.55;;;2.90;;
71091;SDS011;58751;50.708;7.134;2023-02-01T10:03:46;9.43;;;3.03;;
71091;SDS011;58751;50.708;7.134;2023-02-01T10:06:24;4.77;;;2.60;;
71091;SDS011;58751;50.708;7.134;2023-02-01T10:11:38;10.50;;;2.50;;
71091;SDS011;58751;50.708;7.134;2023-02-01T10:14:09;11.25;;;3.88;;
71091;SDS011;58751;50.708;7.134;2023-02-01T10:16:37;8.65;;;2.63;;
71091;SDS011;58751;50.708;7.134;2023-02-01T10:19:24;8.10;;;3.08;;
71091;SDS011;58751;50.708;7.134;2023-02-01T10:21:54;5.38;;;2.50;;
71091;SDS011;58751;50.708;7.134;2023-02-01T10:24:25;9.85;;;3.30;;
71091;SDS011;58751;50.708;7.134;2023-02-01T10:26:55;11.07;;;3.47;;
71091;SDS011;58751;50.708;7.134;2023-02-01T10:29:24;7.18;;;2.50;;
71091;SDS011;58751;50.708;7.134;2023-02-01T10:31:51;9.98;;;2.72;;
71091;SDS011;58751;50.708;7.134;2023-02-01T10:34:18;11.17;;;2.77;;
71091;SDS011;58751;50.708;7.134;2023-02-01T10:36:47;12.15;;;3.58;;
71091;SDS011;58751;50.708;7.134;2023-02-01T10:39:14;8.85;;;2.97;;
71091;SDS011;58751;50.708;7.134;2023-02-01T10:41:40;9.37;;;2.93;;
71091;SDS011;58751;50.708;7.134;2023-02-01T10:44:07;8.60;;;3.23;;
71091;SDS011;58751;50.708;7.134;2023-02-01T10:46:34;5.72;;;3.10;;
71091;SDS011;58751;50.708;7.134;2023-02-01T10:49:00;9.48;;;3.45;;
71091;SDS011;58751;50.708;7.134;2023-02-01T10:51:28;9.65;;;3.65;;
71091;SDS011;58751;50.708;7.134;2023-02-01T10:53:55;6.97;;;2.30;;
71091;SDS011;58751;50.708;7.134;2023-02-01T10:56:22;5.53;;;2.80;;
71091;SDS011;58751;50.708;7.134;2023-02-01T10:58:47;6.47;;;2.53;;
71091;SDS011;58751;50.708;7.134;2023-02-01T11:01:16;9.13;;;2.97;;
71091;SDS011;58751;50.708;7.134;2023-02-01T11:03:43;7.93;;;2.50;;
71091;SDS011;58751;50.708;7.134;2023-02-01T11:06:10;6.05;;;2.55;;
71091;SDS011;58751;50.708;7.134;2023-02-01T11:08:41;9.32;;;3.30;;
71091;SDS011;58751;50.708;7.134;2023-02-01T11:11:07;12.48;;;2.95;;
71091;SDS011;58751;50.708;7.134;2023-02-01T11:13:32;7.87;;;2.77;;
71091;SDS011;58751;50.708;7.134;2023-02-01T11:16:03;10.40;;;4.07;;
71091;SDS011;58751;50.708;7.134;2023-02-01T11:18:30;6.38;;;2.92;;
71091;SDS011;58751;50.708;7.134;2023-02-01T11:20:56;7.75;;;2.78;;
71091;SDS011;58751;50.708;7.134;2023-02-01T11:23:24;10.82;;;3.53;;
71091;SDS011;58751;50.708;7.134;2023-02-01T11:25:51;9.75;;;2.88;;
71091;SDS011;58751;50.708;7.134;2023-02-01T11:28:16;11.13;;;2.75;;
71091;SDS011;58751;50.708;7.134;2023-02-01T11:30:43;10.97;;;3.30;;
71091;SDS011;58751;50.708;7.134;2023-02-01T11:33:12;10.98;;;2.85;;
71091;SDS011;58751;50.708;7.134;2023-02-01T11:35:38;9.43;;;2.97;;
71091;SDS011;58751;50.708;7.134;2023-02-01T11:38:10;8.13;;;2.90;;
71091;SDS011;58751;50.708;7.134;2023-02-01T11:40:36;4.88;;;2.75;;
71091;SDS011;58751;50.708;7.134;2023-02-01T11:43:07;9.77;;;3.58;;
71091;SDS011;58751;50.708;7.134;2023-02-01T11:45:32;10.23;;;2.83;;
71091;SDS011;58751;50.708;7.134;2023-02-01T11:47:58;3.60;;;2.90;;
71091;SDS011;58751;50.708;7.134;2023-02-01T11:50:25;10.57;;;2.10;;
71091;SDS011;58751;50.708;7.134;2023-02-01T11:53:02;10.60;;;2.95;;
71091;SDS011;58751;50.708;7.134;2023-02-01T11:55:38;3.92;;;2.20;;
71091;SDS011;58751;50.708;7.134;2023-02-01T11:58:12;11.45;;;3.17;;
71091;SDS011;58751;50.708;7.134;2023-02-01T12:00:47;5.28;;;2.42;;
71091;SDS011;58751;50.708;7.134;2023-02-01T12:03:24;11.15;;;2.88;;
71091;SDS011;58751;50.708;7.134;2023-02-01T12:05:54;10.23;;;2.90;;
71091;SDS011;58751;50.708;7.134;2023-02-01T12:08:27;6.60;;;2.17;;
71091;SDS011;58751;50.708;7.134;2023-02-01T12:10:58;9.95;;;2.90;;
71091;SDS011;58751;50.708;7.134;2023-02-01T12:13:30;7.15;;;2.67;;
71091;SDS011;58751;50.708;7.134;2023-02-01T12:16:02;4.95;;;2.20;;
71091;SDS011;58751;50.708;7.134;2023-02-01T12:18:32;7.07;;;2.42;;
71091;SDS011;58751;50.708;7.134;2023-02-01T12:21:10;5.70;;;2.90;;
71091;SDS011;58751;50.708;7.134;2023-02-01T12:23:44;9.60;;;2.30;;
71091;SDS011;58751;50.708;7.134;2023-02-01T12:29:04;10.60;;;2.50;;
71091;SDS011;58751;50.708;7.134;2023-02-01T12:31:43;5.50;;;2.50;;
71091;SDS011;58751;50.708;7.134;2023-02-01T12:34:22;7.28;;;2.50;;
71091;SDS011;58751;50.708;7.134;2023-02-01T12:36:50;6.47;;;2.28;;
71091;SDS011;58751;50.708;7.134;2023-02-01T12:39:20;7.32;;;2.70;;
71091;SDS011;58751;50.708;7.134;2023-02-01T12:41:49;9.05;;;2.50;;
71091;SDS011;58751;50.708;7.134;2023-02-01T12:44:20;7.22;;;2.85;;
71091;SDS011;58751;50.708;7.134;2023-02-01T12:46:50;8.90;;;2.45;;
71091;SDS011;58751;50.708;7.134;2023-02-01T12:49:19;5.60;;;2.30;;
71091;SDS011;58751;50.708;7.134;2023-02-01T12:51:46;4.22;;;2.20;;
71091;SDS011;58751;50.708;7.134;2023-02-01T12:54:15;6.82;;;2.80;;
71091;SDS011;58751;50.708;7.134;2023-02-01T12:56:44;4.90;;;2.28;;
71091;SDS011;58751;50.708;7.134;2023-02-01T12:59:14;7.22;;;2.95;;
71091;SDS011;58751;50.708;7.134;2023-02-01T13:01:43;6.65;;;2.85;;
71091;SDS011;58751;50.708;7.134;2023-02-01T13:04:11;8.75;;;3.15;;
71091;SDS011;58751;50.708;7.134;2023-02-01T13:06:38;5.82;;;1.75;;
71091;SDS011;58751;50.708;7.134;2023-02-01T13:09:06;5.03;;;1.90;;
71091;SDS011;58751;50.708;7.134;2023-02-01T13:11:35;6.05;;;2.47;;
71091;SDS011;58751;50.708;7.134;2023-02-01T13:14:03;5.80;;;2.55;;
71091;SDS011;58751;50.708;7.134;2023-02-01T13:16:30;11.73;;;2.25;;
71091;SDS011;58751;50.708;7.134;2023-02-01T13:18:59;11.43;;;3.17;;
71091;SDS011;58751;50.708;7.134;2023-02-01T13:21:29;9.05;;;2.65;;
71091;SDS011;58751;50.708;7.134;2023-02-01T13:23:56;7.30;;;2.25;;
71091;SDS011;58751;50.708;7.134;2023-02-01T13:26:22;7.97;;;3.00;;
71091;SDS011;58751;50.708;7.134;2023-02-01T13:28:48;14.27;;;2.70;;
71091;SDS011;58751;50.708;7.134;2023-02-01T13:31:22;4.22;;;1.98;;
71091;SDS011;58751;50.708;7.134;2023-02-01T13:33:54;11.63;;;3.22;;
71091;SDS011;58751;50.708;7.134;2023-02-01T13:36:37;5.85;;;2.38;;
71091;SDS011;58751;50.708;7.134;2023-02-01T13:42:01;13.45;;;3.97;;
71091;SDS011;58751;50.708;7.134;2023-02-01T13:44:28;4.93;;;2.78;;
71091;SDS011;58751;50.708;7.134;2023-02-01T13:46:54;6.28;;;2.15;;
71091;SDS011;58751;50.708;7.134;2023-02-01T13:49:21;5.13;;;2.22;;
71091;SDS011;58751;50.708;7.134;2023-02-01T13:51:49;10.13;;;2.15;;
71091;SDS011;58751;50.708;7.134;2023-02-01T13:54:27;8.00;;;2.70;;
71091;SDS011;58751;50.708;7.134;2023-02-01T13:56:53;8.75;;;2.28;;
71091;SDS011;58751;50.708;7.134;2023-02-01T14:02:36;12.05;;;4.30;;
71091;SDS011;58751;50.708;7.134;2023-02-01T14:05:02;7.95;;;2.53;;
71091;SDS011;58751;50.708;7.134;2023-02-01T14:07:28;6.63;;;2.07;;
71091;SDS011;58751;50.708;7.134;2023-02-01T14:09:54;10.25;;;2.60;;
71091;SDS011;58751;50.708;7.134;2023-02-01T14:15:19;10.35;;;2.03;;
71091;SDS011;58751;50.708;7.134;2023-02-01T14:17:45;7.75;;;3.05;;
71091;SDS011;58751;50.708;7.134;2023-02-01T14:23:12;9.68;;;2.65;;
71091;SDS011;58751;50.708;7.134;2023-02-01T14:25:38;9.75;;;2.75;;
71091;SDS011;58751;50.708;7.134;2023-02-01T14:28:09;5.88;;;3.05;;
71091;SDS011;58751;50.708;7.134;2023-02-01T14:30:35;10.02;;;3.55;;
71091;SDS011;58751;50.708;7.134;2023-02-01T14:33:00;8.60;;;2.83;;
71091;SDS011;58751;50.708;7.134;2023-02-01T14:35:35;6.35;;;2.95;;
71091;SDS011;58751;50.708;7.134;2023-02-01T14:38:01;7.57;;;3.17;;
71091;SDS011;58751;50.708;7.134;2023-02-01T14:40:28;3.17;;;2.87;;
71091;SDS011;58751;50.708;7.134;2023-02-01T14:42:54;6.75;;;2.47;;
71091;SDS011;58751;50.708;7.134;2023-02-01T14:50:47;7.95;;;2.85;;
71091;SDS011;58751;50.708;7.134;2023-02-01T14:53:17;4.90;;;2.03;;
71091;SDS011;58751;50.708;7.134;2023-02-01T14:55:45;7.15;;;2.35;;
71091;SDS011;58751;50.708;7.134;2023-02-01T14:58:14;9.77;;;2.30;;
71091;SDS011;58751;50.708;7.134;2023-02-01T15:00:40;8.05;;;1.80;;
71091;SDS011;58751;50.708;7.134;2023-02-01T15:03:17;7.82;;;2.42;;
71091;SDS011;58751;50.708;7.134;2023-02-01T15:05:50;9.85;;;2.70;;
71091;SDS011;58751;50.708;7.134;2023-02-01T15:08:21;6.55;;;2.78;;